sensor_id;sensor_type;location;lat;lon;timestamp;pressure;altitude;pressure_sealevel;temperature;humidity
19086;BME280;9675;51.538;6.728;2023-07-31T00:00:15;100727.44;;;18.20;100.00
19086;BME280;9675;51.538;6.728;2023-07-31T00:02:44;100717.00;;;18.20;100.00
19086;BME280;9675;51.538;6.728;2023-07-31T00:05:11;100720.44;;;18.18;100.00
19086;BME280;9675;51.538;6.728;2023-07-31T00:07:38;100709.91;;;18.12;100.00
19086;BME280;9675;51.538;6.728;2023-07-31T00:10:06;100722.03;;;18.10;100.00
19086;BME280;9675;51.538;6.728;2023-07-31T00:12:33;100718.50;;;18.06;100.00
19086;BME280;9675;51.538;6.728;2023-07-31T00:15:00;100709.78;;;18.04;100.00
19086;BME280;9675;51.538;6.728;2023-07-31T00:17:28;100714.09;;;18.04;100.00
19086;BME280;9675;51.538;6.728;2023-07-31T00:19:56;100707.13;;;18.01;100.00
19086;BME280;9675;51.538;6.728;2023-07-31T00:22:23;100707.97;;;18.00;100.00
19086;BME280;9675;51.538;6.728;2023-07-31T00:24:51;100724.50;;;18.01;100.00
19086;BME280;9675;51.538;6.728;2023-07-31T00:27:18;100720.09;;;17.98;100.00
19086;BME280;9675;51.538;6.728;2023-07-31T00:29:45;100709.63;;;17.95;100.00
19086;BME280;9675;51.538;6.728;2023-07-31T00:32:12;100716.53;;;17.93;100.00
19086;BME280;9675;51.538;6.728;2023-07-31T00:34:39;100706.09;;;17.93;100.00
19086;BME280;9675;51.538;6.728;2023-07-31T00:37:07;100707.00;;;17.95;100.00
19086;BME280;9675;51.538;6.728;2023-07-31T00:39:35;100714.84;;;17.95;100.00
19086;BME280;9675;51.538;6.728;2023-07-31T00:42:03;100710.44;;;17.91;100.00
19086;BME280;9675;51.538;6.728;2023-07-31T00:44:30;100706.88;;;17.88;100.00
19086;BME280;9675;51.538;6.728;2023-07-31T00:46:57;100711.22;;;17.87;100.00
19086;BME280;9675;51.538;6.728;2023-07-31T00:49:25;100716.44;;;17.87;100.00
19086;BME280;9675;51.538;6.728;2023-07-31T00:51:53;100714.69;;;17.88;100.00
19086;BME280;9675;51.538;6.728;2023-07-31T00:54:24;100710.34;;;17.87;100.00
19086;BME280;9675;51.538;6.728;2023-07-31T00:56:54;100708.59;;;17.86;100.00
19086;BME280;9675;51.538;6.728;2023-07-31T00:59:21;100700.81;;;17.87;100.00
19086;BME280;9675;51.538;6.728;2023-07-31T01:01:49;100713.84;;;17.87;100.00
19086;BME280;9675;51.538;6.728;2023-07-31T01:04:18;100700.72;;;17.84;100.00
19086;BME280;9675;51.538;6.728;2023-07-31T01:06:56;100704.19;;;17.81;100.00
19086;BME280;9675;51.538;6.728;2023-07-31T01:09:44;100704.13;;;17.80;100.00
19086;BME280;9675;51.538;6.728;2023-07-31T01:12:15;100696.31;;;17.80;100.00
19086;BME280;9675;51.538;6.728;2023-07-31T01:14:51;100692.88;;;17.82;100.00
19086;BME280;9675;51.538;6.728;2023-07-31T01:17:19;100711.13;;;17.81;100.00
19086;BME280;9675;51.538;6.728;2023-07-31T01:19:47;100714.56;;;17.80;100.00
19086;BME280;9675;51.538;6.728;2023-07-31T01:22:45;100702.34;;;17.76;100.00
19086;BME280;9675;51.538;6.728;2023-07-31T01:28:15;100701.56;;;17.81;100.00
19086;BME280;9675;51.538;6.728;2023-07-31T01:30:48;100698.06;;;17.79;100.00
19086;BME280;9675;51.538;6.728;2023-07-31T01:33:16;100695.41;;;17.78;100.00
19086;BME280;9675;51.538;6.728;2023-07-31T01:35:45;100698.94;;;17.80;100.00
19086;BME280;9675;51.538;6.728;2023-07-31T01:38:13;100700.69;;;17.81;100.00
19086;BME280;9675;51.538;6.728;2023-07-31T01:40:42;100691.13;;;17.80;100.00
19086;BME280;9675;51.538;6.728;2023-07-31T01:43:10;100695.47;;;17.81;100.00
19086;BME280;9675;51.538;6.728;2023-07-31T01:45:37;100694.56;;;17.79;100.00
19086;BME280;9675;51.538;6.728;2023-07-31T01:48:04;100697.06;;;17.73;100.00
19086;BME280;9675;51.538;6.728;2023-07-31T01:50:31;100684.03;;;17.73;100.00
19086;BME280;9675;51.538;6.728;2023-07-31T01:52:58;100688.41;;;17.74;100.00
19086;BME280;9675;51.538;6.728;2023-07-31T01:55:25;100684.03;;;17.73;100.00
19086;BME280;9675;51.538;6.728;2023-07-31T01:57:53;100684.03;;;17.71;100.00
19086;BME280;9675;51.538;6.728;2023-07-31T02:00:21;100682.25;;;17.70;100.00
19086;BME280;9675;51.538;6.728;2023-07-31T02:02:48;100679.59;;;17.67;100.00
19086;BME280;9675;51.538;6.728;2023-07-31T02:05:16;100683.03;;;17.65;100.00
19086;BME280;9675;51.538;6.728;2023-07-31T02:07:43;100676.06;;;17.64;100.00
19086;BME280;9675;51.538;6.728;2023-07-31T02:10:10;100682.09;;;17.61;100.00
19086;BME280;9675;51.538;6.728;2023-07-31T02:12:37;100675.06;;;17.59;100.00
19086;BME280;9675;51.538;6.728;2023-07-31T02:15:05;100674.25;;;17.60;100.00
19086;BME280;9675;51.538;6.728;2023-07-31T02:17:33;100675.06;;;17.59;100.00
19086;BME280;9675;51.538;6.728;2023-07-31T02:20:00;100671.59;;;17.58;100.00
19086;BME280;9675;51.538;6.728;2023-07-31T02:22:27;100672.41;;;17.56;100.00
19086;BME280;9675;51.538;6.728;2023-07-31T02:24:54;100668.91;;;17.54;100.00
19086;BME280;9675;51.538;6.728;2023-07-31T02:27:21;100674.09;;;17.54;100.00
19086;BME280;9675;51.538;6.728;2023-07-31T02:29:52;100667.13;;;17.53;100.00
19086;BME280;9675;51.538;6.728;2023-07-31T02:32:20;100661.88;;;17.50;100.00
19086;BME280;9675;51.538;6.728;2023-07-31T02:34:48;100668.84;;;17.51;100.00
19086;BME280;9675;51.538;6.728;2023-07-31T02:37:15;100672.34;;;17.51;100.00
19086;BME280;9675;51.538;6.728;2023-07-31T02:39:42;100659.38;;;17.54;100.00
19086;BME280;9675;51.538;6.728;2023-07-31T02:42:09;100661.91;;;17.51;100.00
19086;BME280;9675;51.538;6.728;2023-07-31T02:44:36;100659.25;;;17.48;100.00
19086;BME280;9675;51.538;6.728;2023-07-31T02:47:04;100660.94;;;17.46;100.00
19086;BME280;9675;51.538;6.728;2023-07-31T02:49:31;100662.69;;;17.46;100.00
19086;BME280;9675;51.538;6.728;2023-07-31T02:51:59;100661.75;;;17.43;100.00
19086;BME280;9675;51.538;6.728;2023-07-31T02:54:26;100665.28;;;17.46;100.00
19086;BME280;9675;51.538;6.728;2023-07-31T02:56:53;100662.69;;;17.46;100.00
19086;BME280;9675;51.538;6.728;2023-07-31T02:59:20;100660.00;;;17.42;100.00
19086;BME280;9675;51.538;6.728;2023-07-31T03:01:47;100665.25;;;17.44;100.00
19086;BME280;9675;51.538;6.728;2023-07-31T03:04:14;100658.31;;;17.45;100.00
19086;BME280;9675;51.538;6.728;2023-07-31T03:06:41;100659.19;;;17.45;100.00
19086;BME280;9675;51.538;6.728;2023-07-31T03:09:10;100654.00;;;17.47;100.00
19086;BME280;9675;51.538;6.728;2023-07-31T03:11:37;100657.53;;;17.49;100.00
19086;BME280;9675;51.538;6.728;2023-07-31T03:14:04;100647.06;;;17.47;100.00
19086;BME280;9675;51.538;6.728;2023-07-31T03:16:31;100649.72;;;17.49;100.00
19086;BME280;9675;51.538;6.728;2023-07-31T03:18:58;100645.34;;;17.48;100.00
19086;BME280;9675;51.538;6.728;2023-07-31T03:21:25;100650.56;;;17.48;100.00
19086;BME280;9675;51.538;6.728;2023-07-31T03:23:52;100644.50;;;17.49;100.00
19086;BME280;9675;51.538;6.728;2023-07-31T03:26:20;100639.25;;;17.46;100.00
19086;BME280;9675;51.538;6.728;2023-07-31T03:28:47;100634.03;;;17.46;100.00
19086;BME280;9675;51.538;6.728;2023-07-31T03:31:15;100644.47;;;17.46;100.00
19086;BME280;9675;51.538;6.728;2023-07-31T03:33:42;100646.16;;;17.43;100.00
19086;BME280;9675;51.538;6.728;2023-07-31T03:36:09;100640.94;;;17.43;100.00
19086;BME280;9675;51.538;6.728;2023-07-31T03:38:36;100638.28;;;17.42;100.00
19086;BME280;9675;51.538;6.728;2023-07-31T03:41:03;100644.34;;;17.41;100.00
19086;BME280;9675;51.538;6.728;2023-07-31T03:43:33;100643.50;;;17.42;100.00
19086;BME280;9675;51.538;6.728;2023-07-31T03:46:00;100642.63;;;17.41;100.00
19086;BME280;9675;51.538;6.728;2023-07-31T03:48:28;100641.75;;;17.41;100.00
19086;BME280;9675;51.538;6.728;2023-07-31T03:50:55;100632.16;;;17.38;100.00
19086;BME280;9675;51.538;6.728;2023-07-31T03:53:22;100639.94;;;17.37;100.00
19086;BME280;9675;51.538;6.728;2023-07-31T03:55:49;100633.88;;;17.38;100.00
19086;BME280;9675;51.538;6.728;2023-07-31T03:58:16;100636.53;;;17.41;100.00
19086;BME280;9675;51.538;6.728;2023-07-31T04:00:45;100637.44;;;17.43;100.00
19086;BME280;9675;51.538;6.728;2023-07-31T04:03:12;100633.97;;;17.42;100.00
19086;BME280;9675;51.538;6.728;2023-07-31T04:05:39;100633.94;;;17.41;100.00
19086;BME280;9675;51.538;6.728;2023-07-31T04:08:06;100631.31;;;17.41;100.00
19086;BME280;9675;51.538;6.728;2023-07-31T04:10:33;100625.28;;;17.40;100.00
19086;BME280;9675;51.538;6.728;2023-07-31T04:13:01;100619.19;;;17.41;100.00
19086;BME280;9675;51.538;6.728;2023-07-31T04:15:28;100621.78;;;17.41;100.00
19086;BME280;9675;51.538;6.728;2023-07-31T04:17:56;100618.31;;;17.39;100.00
19086;BME280;9675;51.538;6.728;2023-07-31T04:20:23;100620.06;;;17.40;100.00
19086;BME280;9675;51.538;6.728;2023-07-31T04:22:50;100621.78;;;17.41;100.00
19086;BME280;9675;51.538;6.728;2023-07-31T04:25:17;100614.00;;;17.41;100.00
19086;BME280;9675;51.538;6.728;2023-07-31T04:27:44;100604.50;;;17.43;100.00
19086;BME280;9675;51.538;6.728;2023-07-31T04:30:11;100612.31;;;17.43;100.00
19086;BME280;9675;51.538;6.728;2023-07-31T04:32:38;100605.41;;;17.46;100.00
19086;BME280;9675;51.538;6.728;2023-07-31T04:35:07;100604.53;;;17.47;100.00
19086;BME280;9675;51.538;6.728;2023-07-31T04:37:34;100602.81;;;17.46;100.00
19086;BME280;9675;51.538;6.728;2023-07-31T04:40:01;100601.03;;;17.45;100.00
19086;BME280;9675;51.538;6.728;2023-07-31T04:42:28;100593.25;;;17.45;100.00
19086;BME280;9675;51.538;6.728;2023-07-31T04:44:55;100602.81;;;17.46;100.00
19086;BME280;9675;51.538;6.728;2023-07-31T04:47:22;100596.72;;;17.45;100.00
19086;BME280;9675;51.538;6.728;2023-07-31T04:49:49;100601.03;;;17.45;100.00
19086;BME280;9675;51.538;6.728;2023-07-31T04:52:18;100595.81;;;17.43;100.00
19086;BME280;9675;51.538;6.728;2023-07-31T04:54:45;100590.56;;;17.41;100.00
19086;BME280;9675;51.538;6.728;2023-07-31T04:57:12;100594.88;;;17.41;100.00
19086;BME280;9675;51.538;6.728;2023-07-31T04:59:39;100581.88;;;17.39;100.00
19086;BME280;9675;51.538;6.728;2023-07-31T05:02:08;100585.31;;;17.38;100.00
19086;BME280;9675;51.538;6.728;2023-07-31T05:04:35;100581.88;;;17.39;100.00
19086;BME280;9675;51.538;6.728;2023-07-31T05:07:02;100580.19;;;17.43;100.00
19086;BME280;9675;51.538;6.728;2023-07-31T05:09:30;100574.13;;;17.44;100.00
19086;BME280;9675;51.538;6.728;2023-07-31T05:11:57;100579.38;;;17.47;100.00
19086;BME280;9675;51.538;6.728;2023-07-31T05:14:26;100573.28;;;17.47;100.00
19086;BME280;9675;51.538;6.728;2023-07-31T05:16:53;100578.50;;;17.47;100.00
19086;BME280;9675;51.538;6.728;2023-07-31T05:19:20;100576.78;;;17.46;100.00
19086;BME280;9675;51.538;6.728;2023-07-31T05:21:47;100575.91;;;17.47;100.00
19086;BME280;9675;51.538;6.728;2023-07-31T05:24:14;100569.84;;;17.48;100.00
19086;BME280;9675;51.538;6.728;2023-07-31T05:26:42;100566.38;;;17.47;100.00
19086;BME280;9675;51.538;6.728;2023-07-31T05:29:09;100566.34;;;17.46;100.00
19086;BME280;9675;51.538;6.728;2023-07-31T05:31:36;100578.50;;;17.47;100.00
19086;BME280;9675;51.538;6.728;2023-07-31T05:34:04;100572.41;;;17.46;100.00
19086;BME280;9675;51.538;6.728;2023-07-31T05:36:31;100569.81;;;17.45;100.00
19086;BME280;9675;51.538;6.728;2023-07-31T05:38:58;100558.47;;;17.42;100.00
19086;BME280;9675;51.538;6.728;2023-07-31T05:41:25;100564.53;;;17.41;100.00
19086;BME280;9675;51.538;6.728;2023-07-31T05:43:53;100553.22;;;17.41;100.00
19086;BME280;9675;51.538;6.728;2023-07-31T05:46:20;100544.56;;;17.40;100.00
19086;BME280;9675;51.538;6.728;2023-07-31T05:48:47;100550.66;;;17.42;100.00
19086;BME280;9675;51.538;6.728;2023-07-31T05:51:14;100549.78;;;17.42;100.00
19086;BME280;9675;51.538;6.728;2023-07-31T05:53:41;100537.69;;;17.44;100.00
19086;BME280;9675;51.538;6.728;2023-07-31T05:56:09;100541.16;;;17.45;100.00
19086;BME280;9675;51.538;6.728;2023-07-31T05:58:36;100529.84;;;17.42;100.00
19086;BME280;9675;51.538;6.728;2023-07-31T06:01:04;100530.69;;;17.41;100.00
19086;BME280;9675;51.538;6.728;2023-07-31T06:03:31;100529.84;;;17.42;100.00
19086;BME280;9675;51.538;6.728;2023-07-31T06:05:58;100529.00;;;17.43;100.00
19086;BME280;9675;51.538;6.728;2023-07-31T06:08:25;100522.94;;;17.45;100.00
19086;BME280;9675;51.538;6.728;2023-07-31T06:10:52;100515.97;;;17.43;100.00
19086;BME280;9675;51.538;6.728;2023-07-31T06:13:19;100526.41;;;17.43;100.00
19086;BME280;9675;51.538;6.728;2023-07-31T06:15:46;100528.16;;;17.45;100.00
19086;BME280;9675;51.538;6.728;2023-07-31T06:18:15;100520.34;;;17.45;100.00
19086;BME280;9675;51.538;6.728;2023-07-31T06:20:42;100524.63;;;17.42;100.00
19086;BME280;9675;51.538;6.728;2023-07-31T06:23:09;100515.97;;;17.43;100.00
19086;BME280;9675;51.538;6.728;2023-07-31T06:25:36;100528.16;;;17.45;100.00
19086;BME280;9675;51.538;6.728;2023-07-31T06:28:03;100528.09;;;17.41;100.00
19086;BME280;9675;51.538;6.728;2023-07-31T06:30:30;100524.59;;;17.41;100.00
19086;BME280;9675;51.538;6.728;2023-07-31T06:32:57;100518.59;;;17.43;100.00
19086;BME280;9675;51.538;6.728;2023-07-31T06:35:26;100521.19;;;17.43;100.00
19086;BME280;9675;51.538;6.728;2023-07-31T06:37:53;100518.56;;;17.42;100.00
19086;BME280;9675;51.538;6.728;2023-07-31T06:40:20;100523.75;;;17.42;100.00
19086;BME280;9675;51.538;6.728;2023-07-31T06:42:47;100518.59;;;17.43;100.00
19086;BME280;9675;51.538;6.728;2023-07-31T06:45:14;100527.25;;;17.42;100.00
19086;BME280;9675;51.538;6.728;2023-07-31T06:47:41;100525.50;;;17.43;100.00
19086;BME280;9675;51.538;6.728;2023-07-31T06:50:08;100522.88;;;17.41;100.00
19086;BME280;9675;51.538;6.728;2023-07-31T06:52:37;100525.47;;;17.41;100.00
19086;BME280;9675;51.538;6.728;2023-07-31T06:55:17;100522.00;;;17.41;100.00
19086;BME280;9675;51.538;6.728;2023-07-31T06:57:44;100509.84;;;17.40;100.00
19086;BME280;9675;51.538;6.728;2023-07-31T07:00:12;100505.53;;;17.40;100.00
19086;BME280;9675;51.538;6.728;2023-07-31T07:02:40;100515.94;;;17.40;100.00
19086;BME280;9675;51.538;6.728;2023-07-31T07:05:07;100514.19;;;17.39;100.00
19086;BME280;9675;51.538;6.728;2023-07-31T07:07:35;100522.84;;;17.38;100.00
19086;BME280;9675;51.538;6.728;2023-07-31T07:10:05;100506.38;;;17.39;100.00
19086;BME280;9675;51.538;6.728;2023-07-31T07:12:33;100505.47;;;17.37;100.00
19086;BME280;9675;51.538;6.728;2023-07-31T07:15:00;100500.25;;;17.37;100.00
19086;BME280;9675;51.538;6.728;2023-07-31T07:17:30;100499.38;;;17.37;100.00
19086;BME280;9675;51.538;6.728;2023-07-31T07:19:58;100502.84;;;17.37;100.00
19086;BME280;9675;51.538;6.728;2023-07-31T07:22:26;100495.06;;;17.37;100.00
19086;BME280;9675;51.538;6.728;2023-07-31T07:24:53;100494.16;;;17.37;100.00
19086;BME280;9675;51.538;6.728;2023-07-31T07:27:22;100501.97;;;17.35;100.00
19086;BME280;9675;51.538;6.728;2023-07-31T07:29:51;100500.25;;;17.37;100.00
19086;BME280;9675;51.538;6.728;2023-07-31T07:32:18;100488.09;;;17.36;100.00
19086;BME280;9675;51.538;6.728;2023-07-31T07:34:47;100498.50;;;17.36;100.00
19086;BME280;9675;51.538;6.728;2023-07-31T07:37:14;100496.81;;;17.38;100.00
19086;BME280;9675;51.538;6.728;2023-07-31T07:39:41;100500.25;;;17.37;100.00
19086;BME280;9675;51.538;6.728;2023-07-31T07:42:08;100496.78;;;17.37;100.00
19086;BME280;9675;51.538;6.728;2023-07-31T07:44:36;100494.16;;;17.37;100.00
19086;BME280;9675;51.538;6.728;2023-07-31T07:47:04;100491.56;;;17.35;100.00
19086;BME280;9675;51.538;6.728;2023-07-31T07:49:33;100497.66;;;17.37;100.00
19086;BME280;9675;51.538;6.728;2023-07-31T07:52:01;100483.75;;;17.37;100.00
19086;BME280;9675;51.538;6.728;2023-07-31T07:54:28;100494.16;;;17.37;100.00
19086;BME280;9675;51.538;6.728;2023-07-31T07:56:55;100497.63;;;17.36;100.00
19086;BME280;9675;51.538;6.728;2023-07-31T07:59:22;100487.22;;;17.36;100.00
19086;BME280;9675;51.538;6.728;2023-07-31T08:01:50;100491.56;;;17.35;100.00
19086;BME280;9675;51.538;6.728;2023-07-31T08:04:17;100493.28;;;17.36;100.00
19086;BME280;9675;51.538;6.728;2023-07-31T08:06:44;100487.19;;;17.34;100.00
19086;BME280;9675;51.538;6.728;2023-07-31T08:09:11;100479.41;;;17.34;100.00
19086;BME280;9675;51.538;6.728;2023-07-31T08:11:38;100488.09;;;17.36;100.00
19086;BME280;9675;51.538;6.728;2023-07-31T08:14:05;100482.00;;;17.34;100.00
19086;BME280;9675;51.538;6.728;2023-07-31T08:16:32;100478.47;;;17.32;100.00
19086;BME280;9675;51.538;6.728;2023-07-31T08:19:00;100465.47;;;17.32;100.00
19086;BME280;9675;51.538;6.728;2023-07-31T08:21:28;100466.31;;;17.30;100.00
19086;BME280;9675;51.538;6.728;2023-07-31T08:23:55;100460.22;;;17.29;100.00
19086;BME280;9675;51.538;6.728;2023-07-31T08:26:22;100467.19;;;17.30;100.00
19086;BME280;9675;51.538;6.728;2023-07-31T08:28:49;100460.25;;;17.32;100.00
19086;BME280;9675;51.538;6.728;2023-07-31T08:31:16;100468.94;;;17.33;100.00
19086;BME280;9675;51.538;6.728;2023-07-31T08:33:44;100464.63;;;17.33;100.00
19086;BME280;9675;51.538;6.728;2023-07-31T08:36:12;100471.59;;;17.34;100.00
19086;BME280;9675;51.538;6.728;2023-07-31T08:38:39;100459.41;;;17.33;100.00
19086;BME280;9675;51.538;6.728;2023-07-31T08:41:06;100463.78;;;17.34;100.00
19086;BME280;9675;51.538;6.728;2023-07-31T08:43:34;100472.47;;;17.36;100.00
19086;BME280;9675;51.538;6.728;2023-07-31T08:46:02;100474.19;;;17.36;100.00
19086;BME280;9675;51.538;6.728;2023-07-31T08:48:31;100471.59;;;17.36;100.00
19086;BME280;9675;51.538;6.728;2023-07-31T08:50:58;100464.66;;;17.35;100.00
19086;BME280;9675;51.538;6.728;2023-07-31T08:53:27;100474.19;;;17.34;100.00
19086;BME280;9675;51.538;6.728;2023-07-31T08:55:54;100474.19;;;17.34;100.00
19086;BME280;9675;51.538;6.728;2023-07-31T08:58:24;100471.59;;;17.34;100.00
19086;BME280;9675;51.538;6.728;2023-07-31T09:00:53;100471.59;;;17.36;100.00
19086;BME280;9675;51.538;6.728;2023-07-31T09:03:24;100475.09;;;17.38;100.00
19086;BME280;9675;51.538;6.728;2023-07-31T09:05:55;100483.78;;;17.38;100.00
19086;BME280;9675;51.538;6.728;2023-07-31T09:08:30;100479.44;;;17.37;100.00
19086;BME280;9675;51.538;6.728;2023-07-31T09:11:00;100475.97;;;17.38;100.00
19086;BME280;9675;51.538;6.728;2023-07-31T09:13:29;100486.41;;;17.38;100.00
19086;BME280;9675;51.538;6.728;2023-07-31T09:15:58;100482.94;;;17.39;100.00
19086;BME280;9675;51.538;6.728;2023-07-31T09:18:25;100474.28;;;17.40;100.00
19086;BME280;9675;51.538;6.728;2023-07-31T09:21:02;100473.41;;;17.40;100.00
19086;BME280;9675;51.538;6.728;2023-07-31T09:23:43;100475.13;;;17.41;100.00
19086;BME280;9675;51.538;6.728;2023-07-31T09:26:11;100469.09;;;17.40;100.00
19086;BME280;9675;51.538;6.728;2023-07-31T09:28:38;100463.03;;;17.43;100.00
19086;BME280;9675;51.538;6.728;2023-07-31T09:31:05;100462.16;;;17.42;100.00
19086;BME280;9675;51.538;6.728;2023-07-31T09:33:32;100461.28;;;17.42;100.00
19086;BME280;9675;51.538;6.728;2023-07-31T09:36:00;100457.00;;;17.44;100.00
19086;BME280;9675;51.538;6.728;2023-07-31T09:38:27;100458.75;;;17.47;100.00
19086;BME280;9675;51.538;6.728;2023-07-31T09:40:59;100457.06;;;17.49;100.00
19086;BME280;9675;51.538;6.728;2023-07-31T09:43:28;100451.88;;;17.52;100.00
19086;BME280;9675;51.538;6.728;2023-07-31T09:45:57;100455.41;;;17.54;100.00
19086;BME280;9675;51.538;6.728;2023-07-31T09:48:24;100447.56;;;17.52;100.00
19086;BME280;9675;51.538;6.728;2023-07-31T09:50:53;100454.53;;;17.55;100.00
19086;BME280;9675;51.538;6.728;2023-07-31T09:53:28;100444.09;;;17.53;100.00
19086;BME280;9675;51.538;6.728;2023-07-31T09:56:00;100437.13;;;17.52;100.00
19086;BME280;9675;51.538;6.728;2023-07-31T09:58:29;100446.66;;;17.52;100.00
19086;BME280;9675;51.538;6.728;2023-07-31T10:00:58;100441.56;;;17.56;100.00
19086;BME280;9675;51.538;6.728;2023-07-31T10:03:27;100434.59;;;17.55;100.00
19086;BME280;9675;51.538;6.728;2023-07-31T10:05:57;100439.03;;;17.59;100.00
19086;BME280;9675;51.538;6.728;2023-07-31T10:08:30;100439.94;;;17.61;100.00
19086;BME280;9675;51.538;6.728;2023-07-31T10:11:01;100428.63;;;17.61;100.00
19086;BME280;9675;51.538;6.728;2023-07-31T10:13:30;100436.44;;;17.61;100.00
19086;BME280;9675;51.538;6.728;2023-07-31T10:16:00;100428.63;;;17.62;100.00
19086;BME280;9675;51.538;6.728;2023-07-31T10:18:28;100440.78;;;17.62;100.00
19086;BME280;9675;51.538;6.728;2023-07-31T10:20:56;100438.25;;;17.65;100.00
19086;BME280;9675;51.538;6.728;2023-07-31T10:23:24;100439.13;;;17.65;100.00
19086;BME280;9675;51.538;6.728;2023-07-31T10:25:53;100436.53;;;17.68;100.00
19086;BME280;9675;51.538;6.728;2023-07-31T10:28:24;100437.41;;;17.66;100.00
19086;BME280;9675;51.538;6.728;2023-07-31T10:30:53;100437.41;;;17.66;100.00
19086;BME280;9675;51.538;6.728;2023-07-31T10:33:21;100425.25;;;17.66;100.00
19086;BME280;9675;51.538;6.728;2023-07-31T10:35:48;100427.84;;;17.68;100.00
19086;BME280;9675;51.538;6.728;2023-07-31T10:38:17;100438.31;;;17.69;100.00
19086;BME280;9675;51.538;6.728;2023-07-31T10:40:44;100431.34;;;17.68;100.00
19086;BME280;9675;51.538;6.728;2023-07-31T10:43:25;100433.97;;;17.70;100.00
19086;BME280;9675;51.538;6.728;2023-07-31T10:45:53;100434.91;;;17.75;100.00
19086;BME280;9675;51.538;6.728;2023-07-31T10:48:21;100436.66;;;17.76;100.00
19086;BME280;9675;51.538;6.728;2023-07-31T10:50:50;100428.84;;;17.77;100.00
19086;BME280;9675;51.538;6.728;2023-07-31T10:53:25;100430.63;;;17.77;100.00
19086;BME280;9675;51.538;6.728;2023-07-31T10:55:53;100434.97;;;17.79;100.00
19086;BME280;9675;51.538;6.728;2023-07-31T10:58:25;100441.06;;;17.80;100.00
19086;BME280;9675;51.538;6.728;2023-07-31T11:00:56;100434.09;;;17.79;100.00
19086;BME280;9675;51.538;6.728;2023-07-31T11:03:29;100426.34;;;17.82;100.00
19086;BME280;9675;51.538;6.728;2023-07-31T11:06:07;100427.19;;;17.82;100.00
19086;BME280;9675;51.538;6.728;2023-07-31T11:08:36;100433.28;;;17.83;100.00
19086;BME280;9675;51.538;6.728;2023-07-31T11:11:10;100427.22;;;17.84;100.00
19086;BME280;9675;51.538;6.728;2023-07-31T11:13:44;100427.22;;;17.84;100.00
19086;BME280;9675;51.538;6.728;2023-07-31T11:16:13;100428.09;;;17.84;100.00
19086;BME280;9675;51.538;6.728;2023-07-31T11:18:41;100429.88;;;17.87;100.00
19086;BME280;9675;51.538;6.728;2023-07-31T11:21:08;100424.66;;;17.87;100.00
19086;BME280;9675;51.538;6.728;2023-07-31T11:23:37;100429.88;;;17.87;100.00
19086;BME280;9675;51.538;6.728;2023-07-31T11:26:06;100428.16;;;17.89;100.00
19086;BME280;9675;51.538;6.728;2023-07-31T11:28:34;100425.53;;;17.89;100.00
19086;BME280;9675;51.538;6.728;2023-07-31T11:31:04;100423.81;;;17.90;100.00
19086;BME280;9675;51.538;6.728;2023-07-31T11:33:32;100420.38;;;17.91;100.00
19086;BME280;9675;51.538;6.728;2023-07-31T11:35:59;100422.13;;;17.92;100.00
19086;BME280;9675;51.538;6.728;2023-07-31T11:38:28;100419.50;;;17.93;100.00
19086;BME280;9675;51.538;6.728;2023-07-31T11:40:58;100427.34;;;17.95;100.00
19086;BME280;9675;51.538;6.728;2023-07-31T11:43:26;100419.56;;;17.96;100.00
19086;BME280;9675;51.538;6.728;2023-07-31T11:45:56;100422.22;;;17.98;100.00
19086;BME280;9675;51.538;6.728;2023-07-31T11:48:26;100426.53;;;17.97;100.00
19086;BME280;9675;51.538;6.728;2023-07-31T11:50:58;100427.41;;;17.99;100.00
19086;BME280;9675;51.538;6.728;2023-07-31T11:53:31;100426.56;;;18.00;100.00
19086;BME280;9675;51.538;6.728;2023-07-31T11:56:01;100430.91;;;18.00;100.00
19086;BME280;9675;51.538;6.728;2023-07-31T11:58:31;100416.16;;;18.02;100.00
19086;BME280;9675;51.538;6.728;2023-07-31T12:01:00;100423.13;;;18.04;100.00
19086;BME280;9675;51.538;6.728;2023-07-31T12:03:29;100424.88;;;18.05;100.00
19086;BME280;9675;51.538;6.728;2023-07-31T12:05:57;100416.22;;;18.06;100.00
19086;BME280;9675;51.538;6.728;2023-07-31T12:08:25;100419.69;;;18.08;100.00
19086;BME280;9675;51.538;6.728;2023-07-31T12:10:54;100419.69;;;18.08;100.00
19086;BME280;9675;51.538;6.728;2023-07-31T12:13:23;100418.84;;;18.09;100.00
19086;BME280;9675;51.538;6.728;2023-07-31T12:15:55;100418.00;;;18.10;100.00
19086;BME280;9675;51.538;6.728;2023-07-31T12:18:25;100418.00;;;18.10;100.00
19086;BME280;9675;51.538;6.728;2023-07-31T12:20:57;100405.88;;;18.14;100.00
19086;BME280;9675;51.538;6.728;2023-07-31T12:23:27;100403.28;;;18.15;100.00
19086;BME280;9675;51.538;6.728;2023-07-31T12:26:01;100408.53;;;18.17;100.00
19086;BME280;9675;51.538;6.728;2023-07-31T12:28:28;100400.75;;;18.18;100.00
19086;BME280;9675;51.538;6.728;2023-07-31T12:30:57;100395.53;;;18.18;100.00
19086;BME280;9675;51.538;6.728;2023-07-31T12:33:31;100402.50;;;18.21;100.00
19086;BME280;9675;51.538;6.728;2023-07-31T12:36:02;100402.53;;;18.22;100.00
19086;BME280;9675;51.538;6.728;2023-07-31T12:38:29;100391.25;;;18.23;100.00
19086;BME280;9675;51.538;6.728;2023-07-31T12:40:56;100388.63;;;18.23;100.00
19086;BME280;9675;51.538;6.728;2023-07-31T12:43:23;100390.38;;;18.26;100.00
19086;BME280;9675;51.538;6.728;2023-07-31T12:45:50;100395.59;;;18.26;100.00
19086;BME280;9675;51.538;6.728;2023-07-31T12:48:17;100397.38;;;18.29;100.00
19086;BME280;9675;51.538;6.728;2023-07-31T12:50:45;100392.16;;;18.29;100.00
19086;BME280;9675;51.538;6.728;2023-07-31T12:53:14;100395.66;;;18.31;100.00
19086;BME280;9675;51.538;6.728;2023-07-31T12:55:41;100390.47;;;18.32;100.00
19086;BME280;9675;51.538;6.728;2023-07-31T12:58:08;100383.53;;;18.33;100.00